createdAt,value
2018-09-14T00:19:13.759Z,9.00
2018-09-14T00:50:32.305Z,7.30
2018-09-14T01:50:35.399Z,10.67
2018-09-14T02:18:58.861Z,8.83
2018-09-14T02:56:02.061Z,10.10
2018-09-14T03:01:26.944Z,8.80
2018-09-14T03:49:59.481Z,9.40
2018-09-14T04:18:23.534Z,10.27
2018-09-14T04:32:24.692Z,12.30
2018-09-14T04:34:54.842Z,14.30
2018-09-14T04:54:41.215Z,11.77
2018-09-14T05:20:11.725Z,11.30
2018-09-14T06:02:57.826Z,15.63
2018-09-14T06:05:29.317Z,14.93
2018-09-14T06:07:58.122Z,15.33
2018-09-14T06:13:26.643Z,18.37
2018-09-14T06:15:57.523Z,17.00
2018-09-14T06:21:21.509Z,17.37
2018-09-14T06:23:54.869Z,18.33
2018-09-14T06:29:30.648Z,17.57
2018-09-14T06:32:00.845Z,17.43
2018-09-14T06:34:29.633Z,18.80
2018-09-14T06:36:58.798Z,18.83
2018-09-14T06:39:27.541Z,18.83
2018-09-14T06:41:56.257Z,20.30
2018-09-14T06:44:25.206Z,19.00
2018-09-14T06:46:54.704Z,20.70
2018-09-14T06:49:23.573Z,20.90
2018-09-14T06:51:52.403Z,22.27
2018-09-14T06:54:21.179Z,22.13
2018-09-14T06:56:49.957Z,22.67
2018-09-14T06:59:18.679Z,22.30
2018-09-14T07:01:47.387Z,26.33
2018-09-14T07:04:16.146Z,26.93
2018-09-14T07:06:44.937Z,27.40
2018-09-14T07:09:13.730Z,27.77
2018-09-14T07:11:42.423Z,27.67
2018-09-14T07:14:11.127Z,28.57
2018-09-14T07:16:39.860Z,27.47
2018-09-14T07:19:08.808Z,29.27
2018-09-14T07:21:37.575Z,30.10
2018-09-14T07:24:07.117Z,31.40
2018-09-14T07:26:35.853Z,30.03
2018-09-14T07:29:06.523Z,29.07
2018-09-14T07:31:35.197Z,28.87
2018-09-14T07:34:03.891Z,29.03
2018-09-14T07:36:32.673Z,28.33
2018-09-14T07:39:02.430Z,27.70
2018-09-14T07:41:31.239Z,27.77
2018-09-14T07:43:59.930Z,26.53
2018-09-14T07:46:28.744Z,27.47
2018-09-14T07:48:57.427Z,30.37
2018-09-14T07:51:26.186Z,28.83
2018-09-14T07:53:54.947Z,30.20
2018-09-14T07:56:24.155Z,30.23
2018-09-14T07:58:53.157Z,29.70
2018-09-14T08:01:22.136Z,29.00
2018-09-14T08:03:50.931Z,28.83
2018-09-14T08:06:19.682Z,29.50
2018-09-14T08:08:48.524Z,27.63
2018-09-14T08:11:17.276Z,29.80
2018-09-14T08:13:46.094Z,28.77
2018-09-14T08:16:14.868Z,26.93
2018-09-14T08:18:43.585Z,27.67
2018-09-14T08:21:12.512Z,28.60
2018-09-14T08:23:41.169Z,26.80
2018-09-14T08:26:11.674Z,26.30
2018-09-14T08:28:40.465Z,26.27
2018-09-14T08:31:09.758Z,23.63
2018-09-14T08:33:38.909Z,20.30
2018-09-14T08:36:07.683Z,21.33
2018-09-14T08:38:36.467Z,19.63
2018-09-14T08:41:05.193Z,19.37
2018-09-14T08:43:33.926Z,19.37
2018-09-14T08:46:02.709Z,20.30
2018-09-14T08:48:31.436Z,19.77
2018-09-14T08:51:00.234Z,19.00
2018-09-14T08:53:29.407Z,19.43
2018-09-14T08:55:58.068Z,19.97
2018-09-14T08:58:26.775Z,18.93
2018-09-14T09:00:55.565Z,19.40
2018-09-14T09:03:24.183Z,19.93
2018-09-14T09:05:52.864Z,19.50
2018-09-14T09:08:21.614Z,21.77
2018-09-14T09:10:50.351Z,21.17
2018-09-14T09:13:19.059Z,22.93
2018-09-14T09:15:47.871Z,21.97
2018-09-14T09:18:16.714Z,23.93
2018-09-14T09:20:45.498Z,23.27
2018-09-14T09:23:15.048Z,24.00
2018-09-14T09:25:43.744Z,23.53
2018-09-14T09:28:12.515Z,22.90
2018-09-14T09:30:41.575Z,21.37
2018-09-14T09:33:10.381Z,21.33
2018-09-14T09:35:39.062Z,20.53
2018-09-14T09:38:07.811Z,20.50
2018-09-14T09:40:36.548Z,19.77
2018-09-14T09:43:05.359Z,19.77
2018-09-14T09:45:33.994Z,19.27
2018-09-14T09:50:55.672Z,18.03
2018-09-14T09:53:24.326Z,17.17
2018-09-14T09:55:53.199Z,16.60
2018-09-14T09:58:21.924Z,16.43
2018-09-14T10:00:55.881Z,15.77
2018-09-14T10:03:29.846Z,16.43
2018-09-14T10:06:03.717Z,15.03
2018-09-14T10:08:32.440Z,12.83
2018-09-14T10:11:01.191Z,13.00
2018-09-14T10:13:29.989Z,14.83
2018-09-14T10:15:58.742Z,15.10
2018-09-14T10:18:27.552Z,14.37
2018-09-14T10:20:56.670Z,15.13
2018-09-14T10:23:25.444Z,14.30
2018-09-14T10:25:54.138Z,13.93
2018-09-14T10:28:22.849Z,13.67
2018-09-14T10:30:51.642Z,11.93
2018-09-14T10:33:21.248Z,11.67
2018-09-14T10:35:50.160Z,12.40
2018-09-14T10:38:19.711Z,12.53
2018-09-14T10:40:48.441Z,12.27
2018-09-14T10:43:17.216Z,10.90
2018-09-14T10:45:46.029Z,11.33
2018-09-14T10:48:14.723Z,11.17
2018-09-14T10:50:43.495Z,11.57
2018-09-14T10:53:12.316Z,10.37
2018-09-14T10:55:41.016Z,10.77
2018-09-14T10:58:09.950Z,9.57
2018-09-14T11:00:38.722Z,11.20
2018-09-14T11:03:07.462Z,10.33
2018-09-14T11:05:36.234Z,9.20
2018-09-14T11:08:04.957Z,9.30
2018-09-14T11:10:33.657Z,8.50
2018-09-14T11:13:02.451Z,8.10
2018-09-14T11:15:31.674Z,8.27
2018-09-14T11:18:00.504Z,8.50
2018-09-14T11:20:29.731Z,8.50
2018-09-14T11:22:58.519Z,7.37
2018-09-14T11:25:27.355Z,7.93
2018-09-14T11:27:56.175Z,7.67
2018-09-14T11:30:26.011Z,7.60
2018-09-14T11:32:54.774Z,7.67
2018-09-14T11:35:24.719Z,8.70
2018-09-14T11:37:53.522Z,7.43
2018-09-14T11:40:27.993Z,7.13
2018-09-14T11:42:56.747Z,7.33
2018-09-14T11:45:28.165Z,7.57
2018-09-14T11:47:57.155Z,7.10
2018-09-14T11:50:27.591Z,7.27
2018-09-14T11:52:56.437Z,6.63
2018-09-14T11:55:26.167Z,6.95
2018-09-14T11:58:01.018Z,6.17
2018-09-14T12:00:33.326Z,6.37
2018-09-14T12:03:03.164Z,5.40
2018-09-14T12:05:32.392Z,5.97
2018-09-14T12:08:02.915Z,5.60
2018-09-14T12:10:37.128Z,7.05
2018-09-14T12:13:07.255Z,7.17
2018-09-14T12:15:35.978Z,5.80
2018-09-14T12:18:04.884Z,5.33
2018-09-14T12:20:33.753Z,7.35
2018-09-14T12:23:03.828Z,7.12
2018-09-14T12:25:38.489Z,6.87
2018-09-14T12:28:10.635Z,6.15
2018-09-14T12:30:39.965Z,6.87
2018-09-14T12:33:10.199Z,6.60
2018-09-14T12:35:40.003Z,6.95
2018-09-14T12:38:08.657Z,6.58
2018-09-14T12:40:37.435Z,7.70
2018-09-14T12:43:06.235Z,6.92
2018-09-14T12:45:35.867Z,8.40
2018-09-14T12:48:05.487Z,7.00
2018-09-14T12:50:34.266Z,6.50
2018-09-14T12:53:03.647Z,6.85
2018-09-14T12:55:32.816Z,6.42
2018-09-14T12:58:01.791Z,8.18
2018-09-14T13:00:31.496Z,8.70
2018-09-14T13:03:00.632Z,7.47
2018-09-14T13:05:31.524Z,7.40
2018-09-14T13:08:00.450Z,6.53
2018-09-14T13:10:29.680Z,7.10
2018-09-14T13:12:58.556Z,6.90
2018-09-14T13:15:27.592Z,6.50
2018-09-14T14:54:02.407Z,4.65
2018-09-14T15:22:32.082Z,4.40
2018-09-14T15:53:49.232Z,4.30
2018-09-14T22:31:57.975Z,3.90
2018-09-14T22:34:30.574Z,4.07
2018-09-14T22:37:00.850Z,4.57
2018-09-14T22:39:33.874Z,4.20
